Time;durP1;ratioP1;P1;durP2;ratioP2;P2;SDS_P1;SDS_P2;PMS_P1;PMS_P2;Temp;Humidity;BMP_temperature;BMP_pressure;BME280_temperature;BME280_humidity;BME280_pressure;Samples;Min_cycle;Max_cycle;Signal;HPM_P1;HPM_P2
2022/07/23 00:01:10;;;;;;;;;;;;;;;;;;5035987;28;2801;-73
2022/07/23 00:03:35;;;;;;;;;;;;;;;;;;5038277;28;2820;-73
2022/07/23 00:06:00;;;;;;;;;;;;;;;;;;5030585;28;2785;-72
2022/07/23 00:08:26;;;;;;;;;;;;;;;;;;5030310;28;2195;-73
2022/07/23 00:10:51;;;;;;;;;;;;;;;;;;5026853;28;2354;-73
2022/07/23 00:13:16;;;;;;;;;;;;;;;;;;5030425;28;2169;-73
2022/07/23 00:15:41;;;;;;;;;;;;;;;;;;5031338;28;2795;-73
2022/07/23 00:18:06;;;;;;;;;;;;;;;;;;5034562;28;2175;-73
2022/07/23 00:20:31;;;;;;;;;;;;;;;;;;5033930;28;2824;-72
2022/07/23 00:22:57;;;;;;;;;;;;;;;;;;5006485;28;2469;-72
2022/07/23 00:25:22;;;;;;;;;;;;;;;;;;5029569;28;2668;-72
2022/07/23 00:27:48;;;;;;;;;;;;;;;;;;5028418;28;2294;-72
2022/07/23 00:30:14;;;;;;;;;;;;;;;;;;5034607;28;2828;-73
2022/07/23 00:32:49;;;;;;;;;;;;;;;;;;5028144;28;2170;-73
2022/07/23 00:35:15;;;;;;;;;;;;;;;;;;5034532;28;2897;-73
2022/07/23 00:37:41;;;;;;;;;;;;;;;;;;5032928;28;1998;-73
2022/07/23 00:40:06;;;;;;;;;;;;;;;;;;5026827;28;2890;-73
2022/07/23 00:42:32;;;;;;;;;;;;;;;;;;5028896;28;2809;-73
2022/07/23 00:44:57;;;;;;;;;;;;;;;;;;5031878;28;2218;-73
2022/07/23 00:47:22;;;;;;;;;;;;;;;;;;5034977;28;2994;-73
2022/07/23 00:49:48;;;;;;;;;;;;;;;;;;5033481;28;1973;-72
2022/07/23 00:52:13;;;;;;;;;;;;;;;;;;5029003;28;2782;-72
2022/07/23 00:54:38;;;;;;;;;;;;;;;;;;5035583;28;2411;-73
2022/07/23 00:57:03;;;;;;;;;;;;;;;;;;5021900;28;2793;-73
2022/07/23 00:59:28;;;;;;;;;;;;;;;;;;5012382;28;2393;-73
2022/07/23 01:01:54;;;;;;;;;;;;;;;;;;5032019;28;2914;-73
2022/07/23 01:04:19;;;;;;;;;;;;;;;;;;5030008;28;1924;-72
2022/07/23 01:06:45;;;;;;;;;;;;;;;;;;5027267;28;2629;-73
2022/07/23 01:09:10;;;;;;;;;;;;;;;;;;5039550;28;1661;-73
2022/07/23 01:11:36;;;;;;;;;;;;;;;;;;5026070;28;2537;-73
2022/07/23 01:14:08;;;;;;;;;;;;;;;;;;5024587;28;1527;-73
2022/07/23 01:16:33;;;;;;;;;;;;;;;;;;5028591;28;2526;-73
2022/07/23 01:18:58;;;;;;;;;;;;;;;;;;5038709;28;2210;-72
2022/07/23 01:21:24;;;;;;;;;;;;;;;;;;5026789;28;2846;-72
2022/07/23 01:23:49;;;;;;;;;;;;;;;;;;5031247;28;2625;-72
2022/07/23 01:26:16;;;;;;;;;;;;;;;;;;5025752;28;2952;-73
2022/07/23 01:28:42;;;;;;;;;;;;;;;;;;5027448;28;2152;-73
2022/07/23 01:31:07;;;;;;;;;;;;;;;;;;5035368;28;2090;-73
2022/07/23 01:33:32;;;;;;;;;;;;;;;;;;5028045;28;2804;-72
2022/07/23 01:35:57;;;;;;;;;;;;;;;;;;5031211;28;2920;-72
2022/07/23 01:38:22;;;;;;;;;;;;;;;;;;5029873;28;3029;-73
2022/07/23 01:40:48;;;;;;;;;;;;;;;;;;5028402;28;2663;-72
2022/07/23 01:43:13;;;;;;;;;;;;;;;;;;5032667;28;2149;-72
2022/07/23 01:45:38;;;;;;;;;;;;;;;;;;5025563;28;2789;-73
2022/07/23 01:48:03;;;;;;;;;;;;;;;;;;5023110;28;2499;-72
2022/07/23 01:50:28;;;;;;;;;;;;;;;;;;5026158;28;2780;-72
2022/07/23 01:52:54;;;;;;;;;;;;;;;;;;5031196;28;2130;-72
2022/07/23 01:55:19;;;;;;;;;;;;;;;;;;5023597;28;2829;-72
2022/07/23 01:57:45;;;;;;;;;;;;;;;;;;5036382;28;2211;-72
2022/07/23 02:00:10;;;;;;;;;;;;;;;;;;5033653;28;2674;-72
2022/07/23 02:02:35;;;;;;;;;;;;;;;;;;5036155;28;2610;-72
2022/07/23 02:05:00;;;;;;;;;;;;;;;;;;5031706;28;2412;-72
2022/07/23 02:07:26;;;;;;;;;;;;;;;;;;5034260;28;2320;-72
2022/07/23 02:09:51;;;;;;;;;;;;;;;;;;5039553;28;2141;-72
2022/07/23 02:12:16;;;;;;;;;;;;;;;;;;5027110;28;2774;-72
2022/07/23 02:14:41;;;;;;;;;;;;;;;;;;5030213;28;2082;-72
2022/07/23 02:17:06;;;;;;;;;;;;;;;;;;5032019;28;2913;-72
2022/07/23 02:19:31;;;;;;;;;;;;;;;;;;5040266;28;2262;-72
2022/07/23 02:21:56;;;;;;;;;;;;;;;;;;5030836;28;2745;-72
2022/07/23 02:24:22;;;;;;;;;;;;;;;;;;5035836;28;1872;-72
2022/07/23 02:26:47;;;;;;;;;;;;;;;;;;5027776;28;2382;-72
2022/07/23 02:29:12;;;;;;;;;;;;;;;;;;5039659;28;2203;-72
2022/07/23 02:31:37;;;;;;;;;;;;;;;;;;5017637;28;2814;-72
2022/07/23 02:34:03;;;;;;;;;;;;;;;;;;5029293;28;2191;-72
2022/07/23 02:36:28;;;;;;;;;;;;;;;;;;5028234;28;2932;-72
2022/07/23 02:38:53;;;;;;;;;;;;;;;;;;5029954;28;2252;-72
2022/07/23 02:41:18;;;;;;;;;;;;;;;;;;5030255;28;2685;-72
2022/07/23 02:43:43;;;;;;;;;;;;;;;;;;5033238;28;2844;-73
2022/07/23 02:46:08;;;;;;;;;;;;;;;;;;5025991;28;2755;-72
2022/07/23 02:48:34;;;;;;;;;;;;;;;;;;5035514;28;2926;-72
2022/07/23 02:50:59;;;;;;;;;;;;;;;;;;5028911;28;2400;-72
2022/07/23 02:53:24;;;;;;;;;;;;;;;;;;5012085;28;2878;-72
2022/07/23 02:55:49;;;;;;;;;;;;;;;;;;5031036;28;2186;-72
2022/07/23 02:58:14;;;;;;;;;;;;;;;;;;5043197;28;2810;-72
2022/07/23 03:00:40;;;;;;;;;;;;;;;;;;5039238;28;2830;-72
2022/07/23 03:03:06;;;;;;;;;;;;;;;;;;5036337;28;2831;-72
2022/07/23 03:05:31;;;;;;;;;;;;;;;;;;5037943;28;3041;-72
2022/07/23 03:07:56;;;;;;;;;;;;;;;;;;5026196;28;2032;-72
2022/07/23 03:10:21;;;;;;;;;;;;;;;;;;5026854;28;3013;-72
2022/07/23 03:12:47;;;;;;;;;;;;;;;;;;5035640;28;2915;-72
2022/07/23 03:15:12;;;;;;;;;;;;;;;;;;5028842;28;2556;-72
2022/07/23 03:17:37;;;;;;;;;;;;;;;;;;5033443;28;2249;-72
2022/07/23 03:20:02;;;;;;;;;;;;;;;;;;5028551;28;1989;-72
2022/07/23 03:22:27;;;;;;;;;;;;;;;;;;5029487;28;2231;-72
2022/07/23 03:24:55;;;;;;;;;;;;;;;;;;5038288;28;1991;-72
2022/07/23 03:27:25;;;;;;;;;;;;;;;;;;5023784;28;3201;-73
2022/07/23 03:29:51;;;;;;;;;;;;;;;;;;5034017;28;2048;-73
2022/07/23 03:32:16;;;;;;;;;;;;;;;;;;5024606;28;2886;-73
2022/07/23 03:34:41;;;;;;;;;;;;;;;;;;5033994;28;2478;-73
2022/07/23 03:37:06;;;;;;;;;;;;;;;;;;5021619;28;3009;-73
2022/07/23 03:39:31;;;;;;;;;;;;;;;;;;5039415;28;2656;-73
2022/07/23 03:41:56;;;;;;;;;;;;;;;;;;5017943;28;2070;-73
2022/07/23 03:44:22;;;;;;;;;;;;;;;;;;5039821;28;2279;-73
2022/07/23 03:46:47;;;;;;;;;;;;;;;;;;5025180;28;2526;-72
2022/07/23 03:49:12;;;;;;;;;;;;;;;;;;5039716;28;2813;-73
2022/07/23 03:51:37;;;;;;;;;;;;;;;;;;5030677;28;2829;-73
2022/07/23 03:54:02;;;;;;;;;;;;;;;;;;5041038;28;2584;-73
2022/07/23 03:56:28;;;;;;;;;;;;;;;;;;5028417;28;2888;-73
2022/07/23 03:58:53;;;;;;;;;;;;;;;;;;5025805;28;2854;-73
2022/07/23 04:01:18;;;;;;;;;;;;;;;;;;5032832;28;2974;-73
2022/07/23 04:03:43;;;;;;;;;;;;;;;;;;5039566;28;2937;-73
2022/07/23 04:06:08;;;;;;;;;;;;;;;;;;5022525;28;2558;-73
2022/07/23 04:08:34;;;;;;;;;;;;;;;;;;5030473;28;2143;-73
2022/07/23 04:10:59;;;;;;;;;;;;;;;;;;5027627;28;2867;-73
2022/07/23 04:13:24;;;;;;;;;;;;;;;;;;5030864;28;2031;-73
2022/07/23 04:15:50;;;;;;;;;;;;;;;;;;5033591;28;2200;-73
2022/07/23 04:18:17;;;;;;;;;;;;;;;;;;5020583;28;3066;-73
2022/07/23 04:20:42;;;;;;;;;;;;;;;;;;5035529;28;2799;-72
2022/07/23 04:23:09;;;;;;;;;;;;;;;;;;5034130;28;3215;-73
2022/07/23 04:25:34;;;;;;;;;;;;;;;;;;5029763;28;2816;-73
2022/07/23 04:27:59;;;;;;;;;;;;;;;;;;5038081;28;2843;-73
2022/07/23 04:30:24;;;;;;;;;;;;;;;;;;5038485;28;1589;-73
2022/07/23 04:32:50;;;;;;;;;;;;;;;;;;5034821;28;2737;-73
2022/07/23 04:35:15;;;;;;;;;;;;;;;;;;5033956;28;1796;-73
2022/07/23 04:37:40;;;;;;;;;;;;;;;;;;5035082;28;2199;-73
2022/07/23 04:40:05;;;;;;;;;;;;;;;;;;5037157;28;1898;-73
2022/07/23 04:42:30;;;;;;;;;;;;;;;;;;5035192;28;2465;-73
2022/07/23 04:44:56;;;;;;;;;;;;;;;;;;5039802;28;1763;-73
2022/07/23 04:47:21;;;;;;;;;;;;;;;;;;5029793;28;2205;-73
2022/07/23 04:49:46;;;;;;;;;;;;;;;;;;5044655;28;2048;-73
2022/07/23 04:52:11;;;;;;;;;;;;;;;;;;5027205;28;2383;-73
2022/07/23 04:54:36;;;;;;;;;;;;;;;;;;5026969;28;2650;-73
2022/07/23 04:57:02;;;;;;;;;;;;;;;;;;5036041;28;1979;-73
2022/07/23 04:59:27;;;;;;;;;;;;;;;;;;5029471;28;2702;-72
2022/07/23 05:01:52;;;;;;;;;;;;;;;;;;5026521;28;2074;-73
2022/07/23 05:04:17;;;;;;;;;;;;;;;;;;5032986;28;2778;-73
2022/07/23 05:06:42;;;;;;;;;;;;;;;;;;5024427;28;2216;-73
2022/07/23 05:09:07;;;;;;;;;;;;;;;;;;5032229;28;2718;-73
2022/07/23 05:11:33;;;;;;;;;;;;;;;;;;5019020;28;2533;-73
2022/07/23 05:13:58;;;;;;;;;;;;;;;;;;5030971;28;2659;-72
2022/07/23 05:16:23;;;;;;;;;;;;;;;;;;5026717;28;2147;-73
2022/07/23 05:18:48;;;;;;;;;;;;;;;;;;5000517;28;2784;-73
2022/07/23 05:21:13;;;;;;;;;;;;;;;;;;5027944;28;2818;-72
2022/07/23 05:23:38;;;;;;;;;;;;;;;;;;5038106;28;2793;-72
2022/07/23 05:26:03;;;;;;;;;;;;;;;;;;5029355;28;2305;-73
2022/07/23 05:28:29;;;;;;;;;;;;;;;;;;5035732;28;3002;-73
2022/07/23 05:30:54;;;;;;;;;;;;;;;;;;5033828;28;2666;-72
2022/07/23 05:33:19;;;;;;;;;;;;;;;;;;5043027;28;2864;-73
2022/07/23 05:35:44;;;;;;;;;;;;;;;;;;5029298;28;1576;-73
2022/07/23 05:38:10;;;;;;;;;;;;;;;;;;5038284;28;2950;-73
2022/07/23 05:40:35;;;;;;;;;;;;;;;;;;5031009;28;1956;-73
2022/07/23 05:43:00;;;;;;;;;;;;;;;;;;5043167;28;2695;-72
2022/07/23 05:45:25;;;;;;;;;;;;;;;;;;5019611;28;1828;-73
2022/07/23 05:47:50;;;;;;;;;;;;;;;;;;5033396;28;2497;-73
2022/07/23 05:50:16;;;;;;;;;;;;;;;;;;5026357;28;2060;-73
2022/07/23 05:52:41;;;;;;;;;;;;;;;;;;5034128;28;2889;-73
2022/07/23 05:55:07;;;;;;;;;;;;;;;;;;5033356;28;1602;-72
2022/07/23 05:57:32;;;;;;;;;;;;;;;;;;5032254;28;2938;-73
2022/07/23 05:59:57;;;;;;;;;;;;;;;;;;5027918;28;2199;-73
2022/07/23 06:02:23;;;;;;;;;;;;;;;;;;5029627;28;2802;-74
2022/07/23 06:04:48;;;;;;;;;;;;;;;;;;5032615;28;2798;-73
2022/07/23 06:07:13;;;;;;;;;;;;;;;;;;5031642;28;2810;-73
2022/07/23 06:09:38;;;;;;;;;;;;;;;;;;5028593;28;2427;-74
2022/07/23 06:12:03;;;;;;;;;;;;;;;;;;5037614;28;2567;-74
2022/07/23 06:14:28;;;;;;;;;;;;;;;;;;5027952;28;2126;-74
2022/07/23 06:16:54;;;;;;;;;;;;;;;;;;5027299;28;2900;-73
2022/07/23 06:19:19;;;;;;;;;;;;;;;;;;5031266;28;2808;-73
2022/07/23 06:21:44;;;;;;;;;;;;;;;;;;5026764;28;2193;-73
2022/07/23 06:24:09;;;;;;;;;;;;;;;;;;5034088;28;2579;-73
2022/07/23 06:26:34;;;;;;;;;;;;;;;;;;5028725;28;2801;-73
2022/07/23 06:28:59;;;;;;;;;;;;;;;;;;5032959;28;2244;-73
2022/07/23 06:31:25;;;;;;;;;;;;;;;;;;5030517;28;2873;-73
2022/07/23 06:33:50;;;;;;;;;;;;;;;;;;5031964;28;2231;-75
2022/07/23 06:36:15;;;;;;;;;;;;;;;;;;5030828;28;3061;-75
2022/07/23 06:38:40;;;;;;;;;;;;;;;;;;5030841;28;2865;-73
2022/07/23 06:41:05;;;;;;;;;;;;;;;;;;5028939;28;2902;-73
2022/07/23 06:43:31;;;;;;;;;;;;;;;;;;5033082;28;2787;-73
2022/07/23 06:45:56;;;;;;;;;;;;;;;;;;5026214;28;1919;-73
2022/07/23 06:48:22;;;;;;;;;;;;;;;;;;5019416;28;2846;-73
2022/07/23 06:50:47;;;;;;;;;;;;;;;;;;5023753;28;1809;-73
2022/07/23 06:53:12;;;;;;;;;;;;;;;;;;5033616;28;2935;-73
2022/07/23 06:55:38;;;;;;;;;;;;;;;;;;5029606;28;1661;-73
2022/07/23 06:58:03;;;;;;;;;;;;;;;;;;5031350;28;2101;-73
2022/07/23 07:00:30;;;;;;;;;;;;;;;;;;5026415;28;1961;-73
2022/07/23 07:02:55;;;;;;;;;;;;;;;;;;5027795;28;2317;-73
2022/07/23 07:05:20;;;;;;;;;;;;;;;;;;5036706;28;2078;-73
2022/07/23 07:07:46;;;;;;;;;;;;;;;;;;5028524;28;1446;-73
2022/07/23 07:10:11;;;;;;;;;;;;;;;;;;5030441;28;1613;-73
2022/07/23 07:12:36;;;;;;;;;;;;;;;;;;5032603;28;2784;-73
2022/07/23 07:15:02;;;;;;;;;;;;;;;;;;5026852;28;2779;-73
2022/07/23 07:17:27;;;;;;;;;;;;;;;;;;5028308;28;2381;-73
2022/07/23 07:19:52;;;;;;;;;;;;;;;;;;5029876;28;2279;-73
2022/07/23 07:22:17;;;;;;;;;;;;;;;;;;5038254;28;3058;-73
2022/07/23 07:24:42;;;;;;;;;;;;;;;;;;5030919;28;2270;-73
2022/07/23 07:27:07;;;;;;;;;;;;;;;;;;5032212;28;1953;-73
2022/07/23 07:29:33;;;;;;;;;;;;;;;;;;5028924;28;2702;-73
2022/07/23 07:31:58;;;;;;;;;;;;;;;;;;5031723;28;2639;-73
2022/07/23 07:34:23;;;;;;;;;;;;;;;;;;5038245;28;2812;-73
2022/07/23 07:36:49;;;;;;;;;;;;;;;;;;5024676;28;2483;-73
2022/07/23 07:39:14;;;;;;;;;;;;;;;;;;5013171;28;2370;-73
2022/07/23 07:41:40;;;;;;;;;;;;;;;;;;5025108;28;2955;-73
2022/07/23 07:44:05;;;;;;;;;;;;;;;;;;5034241;28;2166;-73
2022/07/23 07:46:30;;;;;;;;;;;;;;;;;;5028448;28;2187;-73
2022/07/23 07:48:55;;;;;;;;;;;;;;;;;;5035130;28;2782;-73
2022/07/23 07:51:20;;;;;;;;;;;;;;;;;;5030588;28;2155;-73
2022/07/23 07:53:46;;;;;;;;;;;;;;;;;;5030070;28;2804;-73
2022/07/23 07:56:11;;;;;;;;;;;;;;;;;;5027332;28;1616;-73
2022/07/23 07:58:36;;;;;;;;;;;;;;;;;;5032148;28;2677;-73
2022/07/23 08:01:02;;;;;;;;;;;;;;;;;;5029281;28;2141;-74
2022/07/23 08:03:27;;;;;;;;;;;;;;;;;;5032888;28;3015;-74
2022/07/23 08:05:52;;;;;;;;;;;;;;;;;;5028778;28;1883;-74
2022/07/23 08:08:17;;;;;;;;;;;;;;;;;;5029303;28;2164;-74
2022/07/23 08:10:43;;;;;;;;;;;;;;;;;;5026188;28;2638;-74
2022/07/23 08:13:11;;;;;;;;;;;;;;;;;;5025440;28;2432;-74
2022/07/23 08:15:37;;;;;;;;;;;;;;;;;;5028182;28;1668;-74
2022/07/23 08:18:02;;;;;;;;;;;;;;;;;;5029433;28;2432;-74
2022/07/23 08:20:27;;;;;;;;;;;;;;;;;;5031242;28;2224;-74
2022/07/23 08:22:54;;;;;;;;;;;;;;;;;;5029242;28;2594;-74
2022/07/23 08:25:23;;;;;;;;;;;;;;;;;;5025646;28;2336;-74
2022/07/23 08:27:49;;;;;;;;;;;;;;;;;;5032942;28;1132;-74
2022/07/23 08:30:16;;;;;;;;;;;;;;;;;;5027987;28;2446;-74
2022/07/23 08:33:07;;;;;;;;;;;;;;;;;;5030196;28;1802;-74
2022/07/23 08:35:32;;;;;;;;;;;;;;;;;;5023883;28;1853;-74
2022/07/23 08:37:58;;;;;;;;;;;;;;;;;;5034433;28;2650;-74
2022/07/23 08:40:26;;;;;;;;;;;;;;;;;;5024304;28;2393;-74
2022/07/23 08:42:51;;;;;;;;;;;;;;;;;;5031481;28;2950;-74
2022/07/23 08:45:17;;;;;;;;;;;;;;;;;;5026538;28;2814;-74
2022/07/23 08:47:43;;;;;;;;;;;;;;;;;;5028334;28;2789;-74
2022/07/23 08:50:08;;;;;;;;;;;;;;;;;;5015892;28;2798;-74
2022/07/23 08:52:35;;;;;;;;;;;;;;;;;;5050691;28;2851;-74
2022/07/23 08:55:01;;;;;;;;;;;;;;;;;;5030350;28;3020;-74
2022/07/23 08:57:26;;;;;;;;;;;;;;;;;;5030737;28;2913;-74
2022/07/23 08:59:51;;;;;;;;;;;;;;;;;;5034722;28;2638;-74
2022/07/23 09:02:16;;;;;;;;;;;;;;;;;;5030446;28;2961;-74
2022/07/23 09:04:42;;;;;;;;;;;;;;;;;;5015594;28;3008;-74
2022/07/23 09:07:07;;;;;;;;;;;;;;;;;;5026774;28;2796;-74
2022/07/23 09:09:33;;;;;;;;;;;;;;;;;;5036377;28;2809;-74
2022/07/23 09:12:09;;;;;;;;;;;;;;;;;;5024372;28;2756;-74
2022/07/23 09:14:39;;;;;;;;;;;;;;;;;;5031165;28;2916;-74
2022/07/23 09:17:08;;;;;;;;;;;;;;;;;;5028126;28;2804;-73
2022/07/23 09:19:33;;;;;;;;;;;;;;;;;;5018059;28;2193;-73
2022/07/23 09:22:16;;;;;;;;;;;;;;;;;;5024824;28;2761;-73
2022/07/23 09:25:01;;;;;;;;;;;;;;;;;;5043967;28;2663;-74
2022/07/23 09:27:44;;;;;;;;;;;;;;;;;;5023649;28;1084;-78
2022/07/23 09:30:10;;;;;;;;;;;;;;;;;;5038126;28;2424;-72
2022/07/23 09:32:35;;;;;;;;;;;;;;;;;;5031014;28;2990;-73
2022/07/23 09:35:00;;;;;;;;;;;;;;;;;;5010560;28;2888;-72
2022/07/23 09:37:25;;;;;;;;;;;;;;;;;;5032525;28;2102;-76
2022/07/23 09:39:50;;;;;;;;;;;;;;;;;;5030004;28;2953;-77
2022/07/23 09:42:25;;;;;;;;;;;;;;;;;;5032055;28;2971;-77
2022/07/23 09:44:51;;;;;;;;;;;;;;;;;;5029648;28;2808;-77
2022/07/23 09:47:17;;;;;;;;;;;;;;;;;;5029582;28;2857;-77
2022/07/23 09:50:01;;;;;;;;;;;;;;;;;;5028688;28;2671;-77
2022/07/23 09:52:30;;;;;;;;;;;;;;;;;;5032018;28;2796;-74
2022/07/23 09:55:00;;;;;;;;;;;;;;;;;;5024887;28;2836;-78
2022/07/23 09:57:25;;;;;;;;;;;;;;;;;;5029761;28;2798;-79
2022/07/23 09:59:51;;;;;;;;;;;;;;;;;;5033560;28;2593;-79
2022/07/23 10:02:16;;;;;;;;;;;;;;;;;;5036691;28;2151;-77
2022/07/23 10:04:42;;;;;;;;;;;;;;;;;;5037449;28;2840;-78
2022/07/23 10:07:09;;;;;;;;;;;;;;;;;;5029143;28;2847;-77
2022/07/23 10:09:37;;;;;;;;;;;;;;;;;;5024448;28;2799;-77
2022/07/23 10:12:11;;;;;;;;;;;;;;;;;;5024358;28;2883;-77
2022/07/23 10:14:37;;;;;;;;;;;;;;;;;;5022828;28;2357;-77
2022/07/23 10:17:03;;;;;;;;;;;;;;;;;;5028453;28;2821;-78
2022/07/23 10:19:29;;;;;;;;;;;;;;;;;;5028205;28;2699;-75
2022/07/23 10:21:58;;;;;;;;;;;;;;;;;;5026083;28;2599;-75
2022/07/23 10:24:45;;;;;;;;;;;;;;;;;;5027354;28;3049;-77
2022/07/23 10:27:28;;;;;;;;;;;;;;;;;;5032322;28;2903;-77
2022/07/23 10:30:06;;;;;;;;;;;;;;;;;;5030400;28;2439;-77
2022/07/23 10:32:44;;;;;;;;;;;;;;;;;;5029065;28;2802;-76
2022/07/23 10:35:12;;;;;;;;;;;;;;;;;;5030828;28;1942;-76
2022/07/23 10:37:39;;;;;;;;;;;;;;;;;;5037777;28;2915;-76
2022/07/23 10:40:11;;;;;;;;;;;;;;;;;;5030530;28;1945;-76
2022/07/23 10:42:36;;;;;;;;;;;;;;;;;;5032275;28;2916;-77
2022/07/23 10:45:21;;;;;;;;;;;;;;;;;;5028913;28;2396;-76
2022/07/23 10:47:46;;;;;;;;;;;;;;;;;;5025701;28;2069;-76
2022/07/23 10:50:30;;;;;;;;;;;;;;;;;;5022710;28;2858;-75
2022/07/23 10:53:08;;;;;;;;;;;;;;;;;;5032553;28;1099;-76
2022/07/23 10:55:33;;;;;;;;;;;;;;;;;;5023182;28;1902;-72
2022/07/23 10:57:58;;;;;;;;;;;;;;;;;;5025549;28;2607;-71
2022/07/23 11:00:24;;;;;;;;;;;;;;;;;;5026524;28;2109;-72
2022/07/23 11:02:51;;;;;;;;;;;;;;;;;;5030611;28;2960;-72
2022/07/23 11:05:17;;;;;;;;;;;;;;;;;;5031533;28;2535;-72
2022/07/23 11:08:11;;;;;;;;;;;;;;;;;;5028203;28;1729;-73
2022/07/23 11:10:38;;;;;;;;;;;;;;;;;;5023194;28;2213;-72
2022/07/23 11:13:21;;;;;;;;;;;;;;;;;;5033402;28;2786;-72
2022/07/23 11:16:06;;;;;;;;;;;;;;;;;;5030156;28;2759;-73
2022/07/23 11:18:40;;;;;;;;;;;;;;;;;;5030306;28;1184;-73
2022/07/23 11:21:20;;;;;;;;;;;;;;;;;;5024143;28;1914;-73
2022/07/23 11:23:58;;;;;;;;;;;;;;;;;;5027699;28;3020;-72
2022/07/23 11:26:39;;;;;;;;;;;;;;;;;;5027469;28;2040;-73
2022/07/23 11:29:24;;;;;;;;;;;;;;;;;;5026629;28;2928;-72
2022/07/23 11:31:53;;;;;;;;;;;;;;;;;;5020866;28;1803;-73
2022/07/23 11:34:31;;;;;;;;;;;;;;;;;;5032647;28;2806;-73
2022/07/23 11:36:57;;;;;;;;;;;;;;;;;;5027043;28;1298;-73
2022/07/23 11:39:24;;;;;;;;;;;;;;;;;;5040954;28;2738;-73
2022/07/23 11:41:50;;;;;;;;;;;;;;;;;;5021312;28;1973;-73
2022/07/23 11:44:28;;;;;;;;;;;;;;;;;;5033276;28;2830;-72
2022/07/23 11:46:57;;;;;;;;;;;;;;;;;;5027814;28;1751;-72
2022/07/23 11:49:22;;;;;;;;;;;;;;;;;;5028832;28;2545;-72
2022/07/23 11:52:02;;;;;;;;;;;;;;;;;;5026907;28;1873;-72
2022/07/23 11:54:27;;;;;;;;;;;;;;;;;;5026715;28;2346;-72
2022/07/23 11:56:59;;;;;;;;;;;;;;;;;;5029404;28;1814;-72
2022/07/23 11:59:25;;;;;;;;;;;;;;;;;;5029098;28;2117;-72
2022/07/23 12:02:01;;;;;;;;;;;;;;;;;;5026543;28;1979;-72
2022/07/23 12:04:40;;;;;;;;;;;;;;;;;;5030287;28;2699;-72
2022/07/23 12:07:29;;;;;;;;;;;;;;;;;;5030245;28;1104;-70
2022/07/23 12:12:41;;;;;;;;;;;;;;;;;;4999350;28;1312;-71
2022/07/23 12:15:07;;;;;;;;;;;;;;;;;;4998315;28;2036;-72
2022/07/23 12:17:34;;;;;;;;;;;;;;;;;;4983478;28;2012;-72
2022/07/23 12:20:00;;;;;;;;;;;;;;;;;;5003714;28;2164;-72
2022/07/23 12:22:27;;;;;;;;;;;;;;;;;;5004822;28;2113;-72
2022/07/23 12:25:00;;;;;;;;;;;;;;;;;;4993305;28;2397;-72
2022/07/23 12:27:25;;;;;;;;;;;;;;;;;;5006177;28;2051;-72
2022/07/23 12:29:51;;;;;;;;;;;;;;;;;;4999834;28;2383;-72
2022/07/23 12:32:27;;;;;;;;;;;;;;;;;;5008117;28;1972;-72
2022/07/23 12:35:04;;;;;;;;;;;;;;;;;;5003868;28;2156;-74
2022/07/23 12:37:31;;;;;;;;;;;;;;;;;;5008905;28;1920;-74
2022/07/23 12:39:56;;;;;;;;;;;;;;;;;;5004362;28;2240;-74
2022/07/23 12:42:21;;;;;;;;;;;;;;;;;;5002735;28;2684;-74
2022/07/23 12:45:06;;;;;;;;;;;;;;;;;;5002622;28;2515;-74
2022/07/23 12:47:49;;;;;;;;;;;;;;;;;;4998821;28;2765;-74
2022/07/23 12:50:33;;;;;;;;;;;;;;;;;;4993543;28;2195;-74
2022/07/23 12:53:06;;;;;;;;;;;;;;;;;;5000572;28;2057;-74
2022/07/23 12:55:31;;;;;;;;;;;;;;;;;;5000271;28;2944;-74
2022/07/23 12:58:04;;;;;;;;;;;;;;;;;;4999615;28;2766;-75
2022/07/23 13:00:29;;;;;;;;;;;;;;;;;;5001861;28;2226;-75
2022/07/23 13:02:54;;;;;;;;;;;;;;;;;;4998679;28;3073;-73
2022/07/23 13:05:20;;;;;;;;;;;;;;;;;;4995602;28;2823;-73
2022/07/23 13:07:45;;;;;;;;;;;;;;;;;;5001370;28;2508;-73
2022/07/23 13:10:12;;;;;;;;;;;;;;;;;;4993788;28;2911;-73
2022/07/23 13:12:37;;;;;;;;;;;;;;;;;;5001637;28;2091;-73
2022/07/23 13:15:02;;;;;;;;;;;;;;;;;;4999947;28;2627;-73
2022/07/23 13:17:27;;;;;;;;;;;;;;;;;;4997105;28;2933;-73
2022/07/23 13:19:52;;;;;;;;;;;;;;;;;;4989248;28;2369;-73
2022/07/23 13:22:17;;;;;;;;;;;;;;;;;;5001665;28;2633;-73
2022/07/23 13:24:43;;;;;;;;;;;;;;;;;;4992412;28;2204;-73
2022/07/23 13:27:08;;;;;;;;;;;;;;;;;;5001152;28;1882;-73
2022/07/23 13:29:33;;;;;;;;;;;;;;;;;;4998822;28;2493;-73
2022/07/23 13:31:58;;;;;;;;;;;;;;;;;;5000968;28;1773;-72
2022/07/23 13:34:23;;;;;;;;;;;;;;;;;;4995217;28;2214;-73
2022/07/23 13:36:49;;;;;;;;;;;;;;;;;;4997736;28;1624;-73
2022/07/23 13:39:14;;;;;;;;;;;;;;;;;;5006903;28;2378;-73
2022/07/23 13:41:39;;;;;;;;;;;;;;;;;;5003486;28;2079;-74
2022/07/23 13:44:04;;;;;;;;;;;;;;;;;;5005205;28;1981;-72
2022/07/23 13:46:29;;;;;;;;;;;;;;;;;;4998673;28;2619;-73
2022/07/23 13:48:54;;;;;;;;;;;;;;;;;;4994622;28;1864;-73
2022/07/23 13:51:20;;;;;;;;;;;;;;;;;;5000430;28;3005;-73
2022/07/23 13:53:46;;;;;;;;;;;;;;;;;;5003874;28;2777;-73
2022/07/23 13:56:11;;;;;;;;;;;;;;;;;;5003540;28;1971;-73
2022/07/23 13:58:36;;;;;;;;;;;;;;;;;;5005961;28;1867;-73
2022/07/23 14:01:01;;;;;;;;;;;;;;;;;;5003040;28;2963;-72
2022/07/23 14:03:27;;;;;;;;;;;;;;;;;;5002851;28;2923;-73
2022/07/23 14:05:52;;;;;;;;;;;;;;;;;;5002793;28;2189;-73
2022/07/23 14:08:18;;;;;;;;;;;;;;;;;;5007077;28;1875;-73
2022/07/23 14:10:43;;;;;;;;;;;;;;;;;;5001289;28;2792;-73
2022/07/23 14:13:08;;;;;;;;;;;;;;;;;;5005957;28;1258;-73
2022/07/23 14:15:33;;;;;;;;;;;;;;;;;;5001584;28;2627;-73
2022/07/23 14:17:59;;;;;;;;;;;;;;;;;;5004553;28;1859;-73
2022/07/23 14:20:25;;;;;;;;;;;;;;;;;;5003422;28;2362;-73
2022/07/23 14:22:50;;;;;;;;;;;;;;;;;;5007023;28;2141;-73
2022/07/23 14:25:16;;;;;;;;;;;;;;;;;;4989681;28;2027;-73
2022/07/23 14:27:41;;;;;;;;;;;;;;;;;;5010711;28;2085;-73
2022/07/23 14:30:07;;;;;;;;;;;;;;;;;;5001694;28;2970;-73
2022/07/23 14:32:33;;;;;;;;;;;;;;;;;;5011299;28;1276;-75
2022/07/23 14:34:58;;;;;;;;;;;;;;;;;;5003031;28;2132;-74
2022/07/23 14:37:24;;;;;;;;;;;;;;;;;;5006377;28;980;-74
2022/07/23 14:39:50;;;;;;;;;;;;;;;;;;5002821;28;2887;-74
2022/07/23 14:42:15;;;;;;;;;;;;;;;;;;5008505;28;1922;-74
2022/07/23 14:44:42;;;;;;;;;;;;;;;;;;5008287;28;2754;-74
2022/07/23 14:47:07;;;;;;;;;;;;;;;;;;5003370;28;2114;-75
2022/07/23 14:49:32;;;;;;;;;;;;;;;;;;4998897;28;2763;-74
2022/07/23 14:51:58;;;;;;;;;;;;;;;;;;5007168;28;1908;-74
2022/07/23 14:54:25;;;;;;;;;;;;;;;;;;4978530;28;2944;-75
2022/07/23 14:56:50;;;;;;;;;;;;;;;;;;5000885;28;1553;-75
2022/07/23 14:59:16;;;;;;;;;;;;;;;;;;5002023;28;2133;-75
2022/07/23 15:01:41;;;;;;;;;;;;;;;;;;5001810;28;2570;-75
2022/07/23 15:04:06;;;;;;;;;;;;;;;;;;5001867;28;1899;-75
2022/07/23 15:06:32;;;;;;;;;;;;;;;;;;5006887;28;2796;-75
2022/07/23 15:08:58;;;;;;;;;;;;;;;;;;5001969;28;1793;-76
2022/07/23 15:11:23;;;;;;;;;;;;;;;;;;5000398;28;2072;-75
2022/07/23 15:13:48;;;;;;;;;;;;;;;;;;4998143;28;2082;-75
2022/07/23 15:16:13;;;;;;;;;;;;;;;;;;5000928;28;2885;-75
2022/07/23 15:18:38;;;;;;;;;;;;;;;;;;5000971;28;1988;-75
2022/07/23 15:21:04;;;;;;;;;;;;;;;;;;5004487;28;2539;-75
2022/07/23 15:23:29;;;;;;;;;;;;;;;;;;4999938;28;1812;-75
2022/07/23 15:25:55;;;;;;;;;;;;;;;;;;4999544;28;2091;-75
2022/07/23 15:28:20;;;;;;;;;;;;;;;;;;5000649;28;2516;-75
2022/07/23 15:30:45;;;;;;;;;;;;;;;;;;4999068;28;2790;-75
2022/07/23 15:33:11;;;;;;;;;;;;;;;;;;4999596;28;2118;-81
2022/07/23 15:35:36;;;;;;;;;;;;;;;;;;4982967;28;2185;-75
2022/07/23 15:38:01;;;;;;;;;;;;;;;;;;5006277;28;2777;-75
2022/07/23 15:40:26;;;;;;;;;;;;;;;;;;4999534;28;2266;-75
2022/07/23 15:42:52;;;;;;;;;;;;;;;;;;5009679;28;2464;-75
2022/07/23 15:45:17;;;;;;;;;;;;;;;;;;5005879;28;2768;-75
2022/07/23 15:47:42;;;;;;;;;;;;;;;;;;5006225;28;1455;-75
2022/07/23 15:50:07;;;;;;;;;;;;;;;;;;5003323;28;2907;-75
2022/07/23 15:52:33;;;;;;;;;;;;;;;;;;5005943;28;1096;-75
2022/07/23 15:54:58;;;;;;;;;;;;;;;;;;5006235;28;2535;-75
2022/07/23 15:57:23;;;;;;;;;;;;;;;;;;4999948;28;1494;-75
2022/07/23 15:59:48;;;;;;;;;;;;;;;;;;4998448;28;1982;-75
2022/07/23 16:02:15;;;;;;;;;;;;;;;;;;5001525;28;1914;-75
2022/07/23 16:04:40;;;;;;;;;;;;;;;;;;5002005;28;2028;-75
2022/07/23 16:07:05;;;;;;;;;;;;;;;;;;5005343;28;1529;-75
2022/07/23 16:09:31;;;;;;;;;;;;;;;;;;5002899;28;2721;-76
2022/07/23 16:11:56;;;;;;;;;;;;;;;;;;5005690;28;2940;-75
2022/07/23 16:14:21;;;;;;;;;;;;;;;;;;5001346;28;2030;-75
2022/07/23 16:16:46;;;;;;;;;;;;;;;;;;5002464;28;2159;-75
2022/07/23 16:19:11;;;;;;;;;;;;;;;;;;5007328;28;2081;-75
2022/07/23 16:21:37;;;;;;;;;;;;;;;;;;5003925;28;2781;-75
2022/07/23 16:24:02;;;;;;;;;;;;;;;;;;5004501;28;2945;-75
2022/07/23 16:26:27;;;;;;;;;;;;;;;;;;5001851;28;2121;-75
2022/07/23 16:28:53;;;;;;;;;;;;;;;;;;5001961;28;2098;-75
2022/07/23 16:31:18;;;;;;;;;;;;;;;;;;4999086;28;1883;-75
2022/07/23 16:33:43;;;;;;;;;;;;;;;;;;4994654;28;2026;-75
2022/07/23 16:36:08;;;;;;;;;;;;;;;;;;4996440;28;1987;-75
2022/07/23 16:38:34;;;;;;;;;;;;;;;;;;4992996;28;1882;-76
2022/07/23 16:40:59;;;;;;;;;;;;;;;;;;5001929;28;2795;-75
2022/07/23 16:43:26;;;;;;;;;;;;;;;;;;5002977;28;3005;-75
2022/07/23 16:45:51;;;;;;;;;;;;;;;;;;4998447;28;2201;-75
2022/07/23 16:48:17;;;;;;;;;;;;;;;;;;5005047;28;2068;-75
2022/07/23 16:50:42;;;;;;;;;;;;;;;;;;4996753;28;2145;-75
2022/07/23 16:53:07;;;;;;;;;;;;;;;;;;4999334;28;2560;-75
2022/07/23 16:55:32;;;;;;;;;;;;;;;;;;5000593;28;2932;-75
2022/07/23 16:57:57;;;;;;;;;;;;;;;;;;5002498;28;1286;-75
2022/07/23 17:00:22;;;;;;;;;;;;;;;;;;4999486;28;2874;-75
2022/07/23 17:02:48;;;;;;;;;;;;;;;;;;4998409;28;1167;-75